Time;durP1;ratioP1;P1;durP2;ratioP2;P2;SDS_P1;SDS_P2;PMS_P1;PMS_P2;Temp;Humidity;BMP_temperature;BMP_pressure;BME280_temperature;BME280_humidity;BME280_pressure;Samples;Min_cycle;Max_cycle;Signal;HPM_P1;HPM_P2
2021/08/17 00:00:29;;;;;;;7.00;3.05;;;;;;;13.46;80.90;100234.16;4968814;28;20075;-80
2021/08/17 00:02:55;;;;;;;6.55;2.75;;;;;;;13.50;80.47;100222.59;4951412;28;20039;-80
2021/08/17 00:05:20;;;;;;;9.13;3.10;;;;;;;13.48;80.51;100207.63;4971402;28;20045;-80
2021/08/17 00:07:46;;;;;;;10.50;3.60;;;;;;;13.40;81.12;100222.84;4966819;28;20097;-80
2021/08/17 00:10:11;;;;;;;8.18;3.10;;;;;;;13.47;80.68;100214.72;4971658;28;20038;-80
2021/08/17 00:12:37;;;;;;;7.78;2.83;;;;;;;13.53;80.17;100206.63;4951240;28;20058;-81
2021/08/17 00:15:04;;;;;;;6.05;2.72;;;;;;;13.52;80.34;100204.88;4968429;28;20049;-81
2021/08/17 00:17:29;;;;;;;9.43;3.00;;;;;;;13.50;80.18;100211.13;4964443;28;20488;-81
2021/08/17 00:19:55;;;;;;;7.93;3.03;;;;;;;13.48;80.18;100212.94;4969301;28;20042;-80
2021/08/17 00:22:23;;;;;;;7.38;3.20;;;;;;;13.46;80.28;100204.16;4967742;28;20074;-80
2021/08/17 00:24:50;;;;;;;11.32;3.13;;;;;;;13.46;80.37;100210.31;4969984;28;20062;-80
2021/08/17 00:27:15;;;;;;;6.18;2.80;;;;;;;13.42;80.00;100206.00;4967778;28;20098;-80
2021/08/17 00:29:41;;;;;;;6.80;3.20;;;;;;;13.42;80.22;100211.31;4969398;28;20448;-80
2021/08/17 00:32:06;;;;;;;8.27;3.42;;;;;;;13.41;79.70;100206.91;4955205;28;20037;-80
2021/08/17 00:34:31;;;;;;;10.52;3.53;;;;;;;13.41;79.65;100190.13;4970208;28;20150;-80
2021/08/17 00:36:58;;;;;;;7.00;2.90;;;;;;;13.36;79.63;100198.19;4967525;28;20043;-80
2021/08/17 00:39:23;;;;;;;7.45;2.92;;;;;;;13.36;79.23;100203.47;4969288;28;20069;-80
2021/08/17 00:41:49;;;;;;;9.52;3.47;;;;;;;13.36;79.30;100201.72;4947291;29;20039;-80
2021/08/17 00:44:22;;;;;;;10.45;3.45;;;;;;;13.34;79.09;100205.31;4966465;28;20549;-79
2021/08/17 00:46:48;;;;;;;11.55;4.38;;;;;;;13.27;78.57;100204.56;4950142;28;20047;-80
2021/08/17 00:49:13;;;;;;;9.35;3.50;;;;;;;13.32;78.39;100205.34;4970033;28;20034;-80
2021/08/17 00:51:39;;;;;;;9.35;3.10;;;;;;;13.31;78.62;100214.22;4949907;29;20051;-80
2021/08/17 00:54:04;;;;;;;8.65;3.55;;;;;;;13.30;78.31;100214.22;4949076;28;20047;-80
2021/08/17 00:56:29;;;;;;;8.65;3.17;;;;;;;13.19;78.59;100211.78;4969907;28;20127;-79
2021/08/17 00:58:55;;;;;;;9.50;3.50;;;;;;;13.30;78.09;100207.16;4963001;28;20039;-80
2021/08/17 01:01:20;;;;;;;11.52;4.15;;;;;;;13.27;78.32;100193.09;4967041;28;20043;-79
2021/08/17 01:03:46;;;;;;;9.20;3.10;;;;;;;13.26;77.74;100216.09;4966983;28;20039;-79
2021/08/17 01:06:11;;;;;;;8.05;3.30;;;;;;;13.21;77.73;100198.50;4969684;28;20038;-79
2021/08/17 01:08:36;;;;;;;8.15;2.70;;;;;;;13.16;78.18;100199.47;4974134;28;20034;-79
2021/08/17 01:11:03;;;;;;;7.13;3.33;;;;;;;13.21;77.88;100198.50;4965786;28;20050;-79
2021/08/17 01:13:29;;;;;;;9.82;3.10;;;;;;;13.20;77.75;100212.66;4948190;28;20134;-79
2021/08/17 01:15:57;;;;;;;7.80;3.30;;;;;;;13.19;77.48;100210.91;4957221;28;20035;-79
2021/08/17 01:18:22;;;;;;;8.50;3.22;;;;;;;13.23;77.49;100207.28;4978427;28;20105;-79
2021/08/17 01:20:51;;;;;;;8.55;3.08;;;;;;;13.19;77.43;100203.84;4964117;28;20414;-79
2021/08/17 01:23:18;;;;;;;10.32;3.35;;;;;;;13.22;77.71;100216.16;4964019;28;20043;-78
2021/08/17 01:25:43;;;;;;;11.02;3.90;;;;;;;13.15;77.26;100220.69;4966766;28;20394;-79
2021/08/17 01:28:09;;;;;;;6.57;3.00;;;;;;;13.08;77.44;100214.66;4964924;28;20046;-79
2021/08/17 01:30:34;;;;;;;8.48;3.33;;;;;;;13.12;76.73;100215.47;4966002;28;20118;-79
2021/08/17 01:32:59;;;;;;;11.30;3.22;;;;;;;13.09;76.74;100205.81;4965621;28;20587;-79
2021/08/17 01:35:25;;;;;;;10.85;3.05;;;;;;;13.10;76.51;100206.72;4948089;28;20046;-79
2021/08/17 01:37:50;;;;;;;8.55;2.70;;;;;;;13.12;76.22;100199.56;4961013;28;20035;-79
2021/08/17 01:40:16;;;;;;;8.10;3.03;;;;;;;13.11;75.69;100204.00;4965619;28;20042;-78
2021/08/17 01:42:51;;;;;;;9.95;3.38;;;;;;;13.12;75.92;100204.88;4964172;28;20071;-79
2021/08/17 01:45:18;;;;;;;5.75;2.88;;;;;;;13.06;75.79;100199.72;4963907;28;20081;-79
2021/08/17 01:47:45;;;;;;;9.30;2.97;;;;;;;13.04;75.46;100201.50;4966135;28;20457;-79
2021/08/17 01:50:13;;;;;;;7.97;3.40;;;;;;;13.05;75.52;100201.50;4964761;28;20432;-79
2021/08/17 01:52:38;;;;;;;6.63;2.85;;;;;;;13.01;75.16;100198.94;4964874;28;20043;-79
2021/08/17 01:55:04;;;;;;;8.07;3.35;;;;;;;12.99;75.02;100206.91;4965034;28;20165;-79
2021/08/17 01:57:30;;;;;;;9.18;3.38;;;;;;;12.97;74.62;100202.53;4964171;28;20047;-79
2021/08/17 01:59:55;;;;;;;9.40;3.05;;;;;;;12.94;75.18;100208.78;4964609;28;20086;-78
2021/08/17 02:02:20;;;;;;;7.30;2.97;;;;;;;13.00;74.70;100221.91;4963082;28;20101;-79
2021/08/17 02:04:45;;;;;;;8.38;2.72;;;;;;;12.97;74.69;100226.38;4967710;28;20619;-79
2021/08/17 02:07:11;;;;;;;9.48;2.90;;;;;;;12.96;75.08;100217.56;4964514;28;20098;-79
2021/08/17 02:09:36;;;;;;;10.45;3.20;;;;;;;12.91;75.04;100211.50;4968555;28;20039;-79
2021/08/17 02:12:02;;;;;;;8.23;3.28;;;;;;;12.96;74.43;100214.06;4967738;28;20044;-79
2021/08/17 02:14:28;;;;;;;8.45;2.97;;;;;;;12.92;74.64;100214.13;4965058;28;20058;-79
2021/08/17 02:16:53;;;;;;;8.90;3.28;;;;;;;12.88;74.33;100222.16;4965044;28;20035;-79
2021/08/17 02:19:19;;;;;;;7.40;3.05;;;;;;;12.88;74.90;100230.97;4964417;28;20035;-78
2021/08/17 02:21:44;;;;;;;8.00;2.97;;;;;;;12.90;74.70;100223.00;4964309;28;20509;-79
2021/08/17 02:24:10;;;;;;;9.85;3.63;;;;;;;12.84;74.74;100218.72;4959701;28;20051;-78
2021/08/17 02:26:35;;;;;;;9.73;3.65;;;;;;;12.88;74.34;100214.22;4946673;28;20042;-79
2021/08/17 02:29:00;;;;;;;8.93;3.42;;;;;;;12.80;74.87;100218.81;4966552;28;20078;-78
2021/08/17 02:31:25;;;;;;;8.93;3.83;;;;;;;12.75;75.22;100215.38;4964829;28;20045;-78
2021/08/17 02:33:51;;;;;;;7.68;3.10;;;;;;;12.69;75.17;100217.22;4963032;28;20039;-78
2021/08/17 02:36:16;;;;;;;12.13;4.10;;;;;;;12.67;74.83;100221.69;4966034;28;20050;-78
2021/08/17 02:38:42;;;;;;;7.68;3.10;;;;;;;12.65;75.61;100220.88;4962504;28;20039;-78
2021/08/17 02:41:07;;;;;;;9.95;3.53;;;;;;;12.68;75.08;100223.44;4966152;28;20130;-79
2021/08/17 02:43:33;;;;;;;8.55;3.35;;;;;;;12.66;74.95;100219.94;4961847;28;20043;-78
2021/08/17 02:45:58;;;;;;;9.55;3.17;;;;;;;12.64;75.24;100208.50;4965338;28;20062;-78
2021/08/17 02:48:24;;;;;;;10.23;3.75;;;;;;;12.64;75.30;100208.50;4963468;28;20035;-79
2021/08/17 02:50:49;;;;;;;7.95;3.15;;;;;;;12.65;74.89;100222.63;4947801;28;20047;-78
2021/08/17 02:53:15;;;;;;;7.78;3.55;;;;;;;12.70;74.86;100220.75;4963520;28;20039;-78
2021/08/17 02:55:40;;;;;;;8.93;3.70;;;;;;;12.69;75.06;100211.94;4963711;28;20031;-78
2021/08/17 02:58:07;;;;;;;10.80;4.00;;;;;;;12.70;74.70;100224.25;4964343;28;20123;-78
2021/08/17 03:00:33;;;;;;;9.38;3.58;;;;;;;12.68;74.72;100222.53;4964169;28;20046;-78
2021/08/17 03:02:59;;;;;;;9.73;3.72;;;;;;;12.66;74.83;100217.31;4966530;28;20038;-78
2021/08/17 03:05:24;;;;;;;9.23;3.42;;;;;;;12.75;74.66;100220.66;4964547;28;20039;-78
2021/08/17 03:07:52;;;;;;;7.85;3.13;;;;;;;12.75;74.14;100218.03;4975934;28;20066;-79
2021/08/17 03:10:18;;;;;;;7.20;3.72;;;;;;;12.76;74.85;100211.81;4968623;28;20034;-79
2021/08/17 03:12:43;;;;;;;9.80;3.80;;;;;;;12.72;74.55;100206.56;4970303;28;20109;-78
2021/08/17 03:15:08;;;;;;;10.32;3.60;;;;;;;12.69;74.66;100201.34;4971836;28;20044;-78
2021/08/17 03:17:37;;;;;;;14.82;4.00;;;;;;;12.71;74.66;100199.56;4975524;28;20103;-78
2021/08/17 03:20:03;;;;;;;8.18;3.15;;;;;;;12.82;73.79;100199.31;4968469;28;20413;-78
2021/08/17 03:22:28;;;;;;;8.45;3.47;;;;;;;12.89;73.15;100197.41;4967427;28;20049;-78
2021/08/17 03:24:53;;;;;;;9.55;3.50;;;;;;;12.83;74.08;100185.16;4968854;28;20034;-78
2021/08/17 03:27:19;;;;;;;10.57;3.40;;;;;;;12.80;74.15;100179.06;4967257;28;20039;-79
2021/08/17 03:29:44;;;;;;;9.02;3.20;;;;;;;12.79;73.55;100190.59;4971356;28;20034;-78
2021/08/17 03:32:09;;;;;;;13.15;4.15;;;;;;;12.71;73.93;100191.59;4966687;28;20047;-78
2021/08/17 03:34:35;;;;;;;8.18;3.03;;;;;;;12.66;74.55;100190.81;4969503;28;20403;-79
2021/08/17 03:37:00;;;;;;;11.70;4.10;;;;;;;12.63;74.09;100190.03;4969887;28;20520;-79
2021/08/17 03:39:26;;;;;;;9.02;3.60;;;;;;;12.60;74.83;100188.31;4975300;28;20035;-78
2021/08/17 03:41:51;;;;;;;9.32;3.60;;;;;;;12.62;74.41;100191.78;4970785;28;20068;-79
2021/08/17 03:44:16;;;;;;;8.00;3.30;;;;;;;12.65;74.67;100212.03;4972568;28;20038;-79
2021/08/17 03:46:41;;;;;;;10.73;3.97;;;;;;;12.63;74.32;100206.78;4968172;28;20050;-78
2021/08/17 03:49:07;;;;;;;12.68;4.60;;;;;;;12.59;74.91;100210.38;4953427;28;20050;-78
2021/08/17 03:51:32;;;;;;;6.32;3.40;;;;;;;12.60;74.26;100227.13;4976212;28;20042;-78
2021/08/17 03:53:57;;;;;;;11.05;3.50;;;;;;;12.60;74.82;100222.72;4974688;28;20047;-77
2021/08/17 03:56:23;;;;;;;8.68;3.33;;;;;;;12.63;74.32;100217.38;4974615;28;20039;-78
2021/08/17 03:58:48;;;;;;;11.55;3.42;;;;;;;12.72;74.00;100216.31;4975707;28;20045;-78
2021/08/17 04:01:14;;;;;;;10.73;3.95;;;;;;;12.76;73.68;100227.69;4978763;28;20039;-78
2021/08/17 04:03:39;;;;;;;9.43;3.38;;;;;;;12.77;73.91;100221.50;4975024;28;20535;-79
2021/08/17 04:06:05;;;;;;;8.50;3.47;;;;;;;12.82;73.52;100222.28;4975712;28;20111;-79
2021/08/17 04:08:30;;;;;;;8.57;3.75;;;;;;;12.82;73.60;100215.22;4972983;28;20043;-79
2021/08/17 04:10:56;;;;;;;9.32;3.25;;;;;;;12.81;73.94;100223.19;4978338;28;20042;-79
2021/08/17 04:13:21;;;;;;;10.88;3.83;;;;;;;12.84;74.23;100226.66;4973536;28;20043;-79
2021/08/17 04:15:46;;;;;;;7.97;3.17;;;;;;;12.98;73.56;100239.59;4977442;28;20031;-78
2021/08/17 04:18:12;;;;;;;7.93;3.63;;;;;;;13.02;73.45;100248.34;4986643;28;20092;-78
2021/08/17 04:20:37;;;;;;;9.45;3.22;;;;;;;13.09;73.61;100253.50;4968551;28;20042;-78
2021/08/17 04:23:02;;;;;;;7.93;3.17;;;;;;;13.22;72.63;100243.50;4969036;28;20047;-78
2021/08/17 04:25:28;;;;;;;8.05;3.22;;;;;;;13.26;72.27;100250.53;4949675;28;20082;-77
2021/08/17 04:27:53;;;;;;;7.65;2.90;;;;;;;13.37;72.07;100258.25;4976929;28;20107;-79
2021/08/17 04:30:18;;;;;;;8.45;3.33;;;;;;;13.44;71.90;100259.88;4983375;28;20042;-78
2021/08/17 04:32:44;;;;;;;7.65;2.80;;;;;;;13.45;72.27;100250.13;4975304;28;20520;-77
2021/08/17 04:35:10;;;;;;;11.18;3.30;;;;;;;13.60;71.35;100271.00;4982318;28;20035;-78
2021/08/17 04:37:36;;;;;;;11.32;4.05;;;;;;;13.65;71.29;100269.13;4974915;28;20150;-78
2021/08/17 04:40:02;;;;;;;10.38;4.25;;;;;;;13.65;71.35;100262.91;4978012;28;20404;-78
2021/08/17 04:42:27;;;;;;;7.68;3.28;;;;;;;13.56;71.43;100272.84;4973862;28;20130;-77
2021/08/17 04:44:53;;;;;;;9.10;2.58;;;;;;;13.58;71.86;100270.16;4974657;28;20035;-78
2021/08/17 04:47:18;;;;;;;6.22;2.55;;;;;;;13.65;71.74;100273.53;4971606;28;20047;-78
2021/08/17 04:49:44;;;;;;;8.20;2.88;;;;;;;13.74;71.50;100268.03;4973305;28;20046;-79
2021/08/17 04:52:09;;;;;;;8.45;3.00;;;;;;;13.83;71.02;100281.06;4949677;28;20053;-78
2021/08/17 04:54:34;;;;;;;6.22;2.70;;;;;;;13.84;71.28;100285.47;4976023;28;20035;-78
2021/08/17 04:57:00;;;;;;;8.43;2.50;;;;;;;13.89;70.32;100280.94;4974135;28;20047;-78
2021/08/17 04:59:25;;;;;;;9.00;2.72;;;;;;;13.92;70.84;100294.13;4966970;28;20062;-78
2021/08/17 05:01:50;;;;;;;11.20;4.15;;;;;;;13.97;70.90;100292.22;4963179;28;20399;-78
2021/08/17 05:04:16;;;;;;;8.23;2.78;;;;;;;13.99;70.59;100284.22;4955718;28;20127;-78
2021/08/17 05:06:41;;;;;;;6.93;2.70;;;;;;;13.85;71.04;100287.19;4968353;28;20046;-77
2021/08/17 05:09:06;;;;;;;8.57;3.58;;;;;;;13.84;71.37;100309.34;4966239;28;20093;-78
2021/08/17 05:11:32;;;;;;;8.73;3.55;;;;;;;13.73;71.62;100293.69;4964042;28;20027;-78
2021/08/17 05:13:57;;;;;;;8.32;2.80;;;;;;;13.72;71.86;100296.34;4971963;28;20047;-77
2021/08/17 05:16:23;;;;;;;7.38;2.70;;;;;;;13.66;72.06;100291.19;4975465;28;20062;-78
2021/08/17 05:18:48;;;;;;;7.25;3.03;;;;;;;13.81;71.74;100297.03;4966484;28;20055;-78
2021/08/17 05:21:14;;;;;;;8.63;3.08;;;;;;;13.78;71.75;100290.91;4956674;28;20090;-78
2021/08/17 05:23:39;;;;;;;5.88;2.72;;;;;;;13.77;72.02;100307.72;4969317;28;20051;-78
2021/08/17 05:26:04;;;;;;;6.10;2.45;;;;;;;13.77;71.56;100319.22;4966909;28;20043;-78
2021/08/17 05:28:30;;;;;;;10.38;2.88;;;;;;;13.78;72.06;100317.41;4969040;28;20042;-77
2021/08/17 05:30:55;;;;;;;7.60;2.70;;;;;;;13.90;71.60;100322.44;4967971;28;20458;-78
2021/08/17 05:33:20;;;;;;;9.35;2.80;;;;;;;14.06;71.29;100322.09;4968671;28;20042;-78
2021/08/17 05:35:46;;;;;;;8.48;3.03;;;;;;;14.25;70.72;100307.47;4950084;28;20098;-78
2021/08/17 05:38:11;;;;;;;9.75;2.80;;;;;;;14.49;69.68;100319.28;4969758;28;20086;-79
2021/08/17 05:40:37;;;;;;;5.75;2.92;;;;;;;14.56;69.95;100327.97;4969786;28;20035;-78
2021/08/17 05:43:03;;;;;;;7.68;2.72;;;;;;;14.75;69.03;100338.97;4955540;28;20049;-78
2021/08/17 05:45:29;;;;;;;7.30;2.78;;;;;;;14.68;68.96;100328.53;4949430;28;20044;-78
2021/08/17 05:47:54;;;;;;;8.60;2.40;;;;;;;14.69;68.74;100343.53;4950802;28;20038;-78
2021/08/17 05:50:19;;;;;;;8.05;3.47;;;;;;;14.84;69.04;100342.28;4969686;28;20084;-78
2021/08/17 05:52:45;;;;;;;8.40;2.88;;;;;;;14.96;68.39;100348.16;4952934;28;20046;-78
2021/08/17 05:55:11;;;;;;;9.02;2.97;;;;;;;14.86;68.36;100350.22;4966879;28;20047;-78
2021/08/17 05:57:37;;;;;;;7.05;2.63;;;;;;;14.80;68.14;100347.69;4971283;28;20042;-78
2021/08/17 06:00:08;;;;;;;6.53;2.80;;;;;;;14.77;67.98;100342.47;4969433;28;20023;-79
2021/08/17 06:02:42;;;;;;;8.25;2.63;;;;;;;14.89;67.59;100353.66;4968535;28;20043;-78
2021/08/17 06:05:08;;;;;;;10.40;2.65;;;;;;;14.87;67.90;100379.38;4954138;28;20042;-78
2021/08/17 06:07:33;;;;;;;6.57;3.10;;;;;;;14.92;68.44;100363.31;4967311;28;20035;-78
2021/08/17 06:09:58;;;;;;;6.70;2.72;;;;;;;14.99;68.07;100370.22;4953300;28;20023;-78
2021/08/17 06:12:24;;;;;;;5.80;2.13;;;;;;;14.98;67.67;100364.94;4947780;28;20054;-78
2021/08/17 06:14:49;;;;;;;7.95;3.05;;;;;;;15.00;68.17;100371.97;4968305;28;20047;-78
2021/08/17 06:17:14;;;;;;;9.13;3.13;;;;;;;14.89;68.30;100374.91;4968742;28;20042;-78
2021/08/17 06:19:40;;;;;;;5.63;2.45;;;;;;;14.95;68.14;100370.34;4964303;28;20035;-78
2021/08/17 06:22:05;;;;;;;9.18;2.95;;;;;;;15.10;67.54;100380.56;4968680;28;20442;-78
2021/08/17 06:24:30;;;;;;;8.48;2.60;;;;;;;15.17;67.24;100379.50;4968190;28;20042;-78
2021/08/17 06:26:56;;;;;;;7.38;2.80;;;;;;;15.33;66.85;100377.28;4972350;28;20113;-78
2021/08/17 06:29:21;;;;;;;6.63;2.50;;;;;;;15.53;66.23;100372.22;4966826;28;20103;-79
2021/08/17 06:31:46;;;;;;;8.90;3.20;;;;;;;15.68;65.81;100376.25;4968743;28;20057;-78
2021/08/17 06:34:12;;;;;;;6.35;2.58;;;;;;;15.70;65.77;100379.78;4965653;28;20506;-78
2021/08/17 06:36:37;;;;;;;6.18;2.60;;;;;;;15.86;65.42;100389.97;4967457;28;20085;-78
2021/08/17 06:39:04;;;;;;;9.70;2.53;;;;;;;15.92;64.70;100384.44;4964297;28;20062;-79
2021/08/17 06:41:29;;;;;;;7.20;2.33;;;;;;;15.90;64.55;100389.84;4952461;28;20053;-79
2021/08/17 06:43:54;;;;;;;11.23;2.55;;;;;;;15.89;64.80;100393.38;4971416;28;20031;-79
2021/08/17 06:46:20;;;;;;;8.48;2.35;;;;;;;15.98;64.45;100389.56;4967522;28;20063;-79
2021/08/17 06:48:45;;;;;;;8.30;2.20;;;;;;;16.15;63.42;100397.06;4973662;28;20404;-79
2021/08/17 06:51:10;;;;;;;9.02;2.25;;;;;;;15.98;63.76;100400.22;4977724;28;20035;-78
2021/08/17 06:53:37;;;;;;;8.55;2.20;;;;;;;15.98;63.92;100405.53;4977594;28;20522;-78
2021/08/17 06:56:02;;;;;;;7.80;2.38;;;;;;;15.88;64.40;100394.31;4972925;28;20113;-78
2021/08/17 06:58:27;;;;;;;9.70;3.20;;;;;;;16.03;64.01;100406.28;4971301;28;20079;-79
2021/08/17 07:00:53;;;;;;;7.15;2.05;;;;;;;16.08;64.08;100395.50;4966372;28;20159;-79
2021/08/17 07:03:18;;;;;;;6.55;2.15;;;;;;;16.17;63.42;100398.75;4971692;28;20049;-78
2021/08/17 07:05:46;;;;;;;6.10;2.80;;;;;;;16.15;63.10;100392.59;4958363;28;20043;-79
2021/08/17 07:08:13;;;;;;;6.60;2.22;;;;;;;16.47;62.35;100401.34;4953398;28;20031;-79
2021/08/17 07:10:39;;;;;;;5.40;2.10;;;;;;;16.71;61.61;100398.78;4971497;28;20054;-78
2021/08/17 07:13:04;;;;;;;8.15;2.40;;;;;;;16.75;60.92;100395.09;4952469;28;20034;-79
2021/08/17 07:15:30;;;;;;;7.47;2.38;;;;;;;16.60;61.00;100393.81;4971246;28;20031;-79
2021/08/17 07:17:55;;;;;;;8.65;3.22;;;;;;;16.49;60.17;100396.84;4969828;28;20035;-80
2021/08/17 07:20:21;;;;;;;10.55;2.28;;;;;;;16.61;61.33;100396.44;4949153;29;20050;-79
2021/08/17 07:22:46;;;;;;;6.97;2.33;;;;;;;16.58;60.87;100398.31;4967936;28;20039;-79
2021/08/17 07:25:12;;;;;;;10.25;2.40;;;;;;;16.64;60.58;100401.66;4968532;28;20047;-79
2021/08/17 07:27:38;;;;;;;6.45;2.13;;;;;;;16.58;59.90;100401.88;4951943;28;20125;-79
2021/08/17 07:30:06;;;;;;;10.15;2.85;;;;;;;16.69;60.55;100396.19;4968659;28;20477;-79
2021/08/17 07:32:33;;;;;;;11.73;2.40;;;;;;;16.67;59.49;100395.38;4951435;28;20043;-79
2021/08/17 07:34:59;;;;;;;9.95;2.55;;;;;;;16.74;59.53;100410.25;4968946;28;20039;-79
2021/08/17 07:37:24;;;;;;;9.20;2.20;;;;;;;16.69;59.55;100404.19;4969827;28;20046;-80
2021/08/17 07:39:49;;;;;;;6.20;2.08;;;;;;;16.85;58.96;100410.78;4971447;28;20035;-80
2021/08/17 07:42:15;;;;;;;6.47;2.03;;;;;;;16.78;60.02;100411.03;4969688;28;20034;-80
2021/08/17 07:44:41;;;;;;;8.35;1.95;;;;;;;16.61;60.64;100416.88;4968505;28;20054;-80
2021/08/17 07:47:06;;;;;;;9.60;2.70;;;;;;;16.63;61.09;100418.56;4968546;28;20038;-80
2021/08/17 07:49:32;;;;;;;7.18;2.42;;;;;;;16.42;60.51;100420.13;4969366;28;20477;-79
2021/08/17 07:51:57;;;;;;;7.93;2.30;;;;;;;16.26;61.01;100434.00;4967764;28;20066;-79
2021/08/17 07:54:23;;;;;;;7.90;2.28;;;;;;;16.21;61.80;100423.47;4952045;28;20093;-80
2021/08/17 07:56:49;;;;;;;10.43;2.88;;;;;;;16.28;61.04;100424.16;4967005;28;20027;-80
2021/08/17 07:59:14;;;;;;;7.47;2.38;;;;;;;16.28;61.31;100425.03;4952651;28;20031;-80
2021/08/17 08:01:40;;;;;;;9.98;3.25;;;;;;;16.44;61.27;100426.28;4949264;29;20043;-80
2021/08/17 08:04:05;;;;;;;7.80;2.17;;;;;;;16.38;61.51;100434.47;4965636;28;20054;-79
2021/08/17 08:06:30;;;;;;;11.50;2.50;;;;;;;16.38;61.27;100431.81;4970230;28;20033;-80
2021/08/17 08:08:56;;;;;;;7.57;2.80;;;;;;;16.34;60.93;100443.47;4950311;29;20143;-80
2021/08/17 08:11:21;;;;;;;7.38;2.72;;;;;;;16.39;61.00;100441.53;4967179;28;20043;-79
2021/08/17 08:13:46;;;;;;;7.30;2.28;;;;;;;16.67;60.21;100450.47;4952546;28;20031;-80
2021/08/17 08:16:12;;;;;;;9.40;2.58;;;;;;;16.60;60.06;100447.97;4967818;28;20050;-82
2021/08/17 08:18:37;;;;;;;10.75;2.30;;;;;;;16.54;60.35;100453.50;4969076;28;20043;-80
2021/08/17 08:21:02;;;;;;;7.60;2.55;;;;;;;16.29;60.39;100458.72;4964151;28;20062;-80
2021/08/17 08:23:28;;;;;;;9.82;3.00;;;;;;;16.29;60.79;100444.53;4952768;28;20043;-80
2021/08/17 08:25:53;;;;;;;7.53;2.33;;;;;;;16.25;61.38;100454.44;4966145;28;20054;-80
2021/08/17 08:28:18;;;;;;;8.40;2.15;;;;;;;16.20;61.49;100459.88;4970928;28;20039;-80
2021/08/17 08:30:44;;;;;;;10.05;2.10;;;;;;;16.13;61.40;100453.00;4964412;28;20042;-80
2021/08/17 08:33:09;;;;;;;7.13;2.50;;;;;;;16.16;61.56;100468.88;4977213;28;20579;-80
2021/08/17 08:35:35;;;;;;;10.95;2.90;;;;;;;16.14;61.93;100459.22;4978329;28;20043;-79
2021/08/17 08:38:00;;;;;;;8.35;2.78;;;;;;;16.05;61.61;100455.03;4969552;28;20063;-80
2021/08/17 08:40:26;;;;;;;7.60;2.55;;;;;;;16.07;61.91;100463.84;4971840;28;20043;-79
2021/08/17 08:42:52;;;;;;;9.38;2.60;;;;;;;16.07;61.32;100470.97;4964724;28;20227;-80
2021/08/17 08:45:18;;;;;;;7.15;2.30;;;;;;;15.98;61.82;100472.97;4969287;28;20049;-80
2021/08/17 08:47:44;;;;;;;9.88;2.80;;;;;;;15.98;61.36;100480.06;4953928;28;20039;-80
2021/08/17 08:50:10;;;;;;;8.07;2.90;;;;;;;15.81;62.04;100469.06;4969764;28;20027;-80
2021/08/17 08:52:36;;;;;;;7.80;2.97;;;;;;;15.81;62.22;100493.00;4952364;28;20505;-80
2021/08/17 08:55:02;;;;;;;10.05;3.13;;;;;;;15.88;62.30;100470.63;4970288;28;20046;-80
2021/08/17 08:57:28;;;;;;;8.13;2.53;;;;;;;15.88;62.50;100475.97;4951739;28;20062;-80
2021/08/17 08:59:53;;;;;;;10.48;2.70;;;;;;;16.12;61.88;100469.03;4971201;28;20445;-80
2021/08/17 09:02:19;;;;;;;12.10;3.00;;;;;;;16.12;61.38;100472.56;4968771;28;20047;-80
2021/08/17 09:04:56;;;;;;;8.15;3.05;;;;;;;16.32;60.38;100485.28;4969875;28;20077;-80
2021/08/17 09:07:35;;;;;;;10.95;2.50;;;;;;;16.38;59.90;100473.56;4951561;28;20039;-80
2021/08/17 09:10:13;;;;;;;9.25;2.92;;;;;;;16.27;60.73;100471.25;4967789;28;20035;-80
2021/08/17 09:12:57;;;;;;;6.13;2.40;;;;;;;16.24;60.18;100463.31;4951277;28;20049;-80
2021/08/17 09:15:31;;;;;;;10.50;2.90;;;;;;;16.17;60.54;100469.78;4951054;28;20070;-80
2021/08/17 09:18:02;;;;;;;6.90;2.33;;;;;;;16.14;60.36;100468.06;4951660;28;20031;-80
2021/08/17 09:20:40;;;;;;;8.68;2.53;;;;;;;16.26;60.00;100468.59;4954048;28;20058;-80
2021/08/17 09:23:26;;;;;;;7.75;2.60;;;;;;;16.28;59.94;100486.28;4968882;28;20039;-79
2021/08/17 09:25:58;;;;;;;6.45;2.47;;;;;;;16.19;59.87;100500.75;4959277;28;20049;-80
2021/08/17 09:28:37;;;;;;;9.25;2.97;;;;;;;16.02;60.56;100486.19;4967560;28;20398;-80
2021/08/17 09:31:24;;;;;;;9.25;2.33;;;;;;;16.14;60.15;100476.06;4950182;28;20035;-80
2021/08/17 09:33:50;;;;;;;7.63;3.22;;;;;;;16.21;60.01;100479.38;4971021;28;20074;-80
2021/08/17 09:36:15;;;;;;;10.40;3.42;;;;;;;16.44;59.18;100484.03;4970400;28;20133;-80
2021/08/17 09:38:41;;;;;;;9.40;2.88;;;;;;;16.46;58.99;100482.19;4948480;28;20043;-79
2021/08/17 09:41:22;;;;;;;6.97;2.40;;;;;;;16.49;58.95;100476.75;4974080;28;20134;-80
2021/08/17 09:44:07;;;;;;;10.75;2.47;;;;;;;16.55;58.26;100476.56;4969410;28;20557;-80
2021/08/17 09:46:40;;;;;;;11.50;3.15;;;;;;;16.60;58.36;100490.59;4971958;28;20073;-80
2021/08/17 09:49:26;;;;;;;10.18;2.80;;;;;;;16.80;57.38;100483.81;4965656;28;20042;-80
2021/08/17 09:51:53;;;;;;;6.90;2.72;;;;;;;17.03;57.21;100478.59;4958411;28;20113;-80
2021/08/17 09:54:21;;;;;;;10.77;2.85;;;;;;;17.19;56.05;100478.94;4967302;28;20066;-80
2021/08/17 09:57:01;;;;;;;10.10;2.78;;;;;;;17.21;55.96;100513.53;4966999;28;20110;-80
2021/08/17 09:59:28;;;;;;;11.75;3.47;;;;;;;17.13;56.41;100494.25;4967507;28;20035;-79
2021/08/17 10:01:54;;;;;;;9.75;2.63;;;;;;;17.12;56.30;100480.06;4966864;28;20054;-80
2021/08/17 10:04:21;;;;;;;8.00;2.22;;;;;;;17.19;56.75;100462.06;4972918;28;20085;-80
2021/08/17 10:06:49;;;;;;;9.50;2.22;;;;;;;17.30;55.90;100478.56;4966358;28;20034;-81
2021/08/17 10:09:15;;;;;;;11.85;2.90;;;;;;;17.24;55.71;100479.66;4970127;28;20517;-81
2021/08/17 10:11:41;;;;;;;9.60;3.13;;;;;;;17.49;56.23;100460.09;4966757;28;20035;-80
2021/08/17 10:14:06;;;;;;;9.35;2.42;;;;;;;17.59;54.92;100461.53;4969425;28;20054;-80
2021/08/17 10:16:33;;;;;;;10.95;2.83;;;;;;;18.04;54.31;100457.22;4964980;28;20507;-79
2021/08/17 10:18:59;;;;;;;6.68;3.20;;;;;;;18.24;53.02;100475.19;4969362;28;20043;-81
2021/08/17 10:21:25;;;;;;;6.78;2.22;;;;;;;18.23;53.11;100458.25;4968350;28;20042;-81
2021/08/17 10:23:50;;;;;;;11.90;2.97;;;;;;;18.45;52.49;100452.94;4954634;28;20035;-80
2021/08/17 10:26:33;;;;;;;6.97;2.47;;;;;;;18.48;52.28;100447.47;4966602;28;20062;-80
2021/08/17 10:28:59;;;;;;;;;;;;;;;18.67;50.95;100460.97;4965950;28;20050;-80
2021/08/17 10:31:27;;;;;;;8.25;2.55;;;;;;;18.63;50.78;100448.66;4936899;28;20122;-80
2021/08/17 10:34:12;;;;;;;8.60;2.80;;;;;;;18.76;49.77;100457.97;4968007;28;20087;-79
2021/08/17 10:36:42;;;;;;;10.68;2.55;;;;;;;18.71;49.93;100464.41;4952088;28;20050;-80
2021/08/17 10:39:17;;;;;;;5.88;2.40;;;;;;;18.80;49.73;100454.22;4970244;28;20034;-80
2021/08/17 10:41:47;;;;;;;11.10;2.45;;;;;;;18.81;50.29;100445.28;4949750;28;20046;-80
2021/08/17 10:44:15;;;;;;;5.57;2.15;;;;;;;18.52;50.91;100446.44;4953889;28;20050;-81
2021/08/17 10:46:46;;;;;;;9.52;2.97;;;;;;;18.32;51.28;100452.56;4950560;28;20505;-80
2021/08/17 10:49:32;;;;;;;9.43;2.73;;;;;;;18.30;51.15;100458.91;4946991;28;20082;-78
2021/08/17 10:52:00;;;;;;;7.57;2.67;;;;;;;18.52;50.45;100448.22;4965231;28;20321;-79
2021/08/17 10:54:36;;;;;;;10.02;2.67;;;;;;;18.74;49.28;100486.53;4946480;23;20048;-79
2021/08/17 10:58:06;;;;;;;8.13;2.55;;;;;;;18.70;48.63;100452.81;4946061;29;20043;-80
2021/08/17 11:01:02;;;;;;;9.55;2.95;;;;;;;19.06;47.65;100444.22;4933291;28;20114;-80
2021/08/17 11:04:46;;;;;;;11.05;3.00;;;;;;;19.34;46.07;100435.03;4943955;28;20052;-79
2021/08/17 11:07:43;;;;;;;7.38;2.10;;;;;;;19.55;45.94;100442.09;4929845;29;20407;-80
2021/08/17 11:11:01;;;;;;;7.00;2.40;;;;;;;19.40;46.43;100450.78;4928302;29;20360;-80
2021/08/17 11:14:07;;;;;;;6.90;2.20;;;;;;;19.55;47.13;100446.59;4940146;28;20052;-80
2021/08/17 11:16:34;;;;;;;7.07;2.58;;;;;;;19.58;45.78;100444.63;4928772;29;20031;-80
2021/08/17 11:19:02;;;;;;;9.98;2.60;;;;;;;19.78;45.46;100448.22;4940473;29;20075;-80
2021/08/17 11:21:36;;;;;;;8.38;2.50;;;;;;;19.84;46.00;100437.25;4926486;29;20139;-80
2021/08/17 11:24:07;;;;;;;7.68;2.40;;;;;;;19.62;45.86;100450.69;4928526;29;20035;-79
2021/08/17 11:26:32;;;;;;;8.68;2.50;;;;;;;19.58;46.39;100468.72;4936700;29;20095;-80